createdAt,value
2023-05-06T00:00:36.640Z,52.92
2023-05-06T00:01:38.893Z,53.16
2023-05-06T00:02:41.298Z,53.00
2023-05-06T00:03:43.923Z,52.98
2023-05-06T00:04:46.724Z,53.12
2023-05-06T00:05:49.486Z,53.43
2023-05-06T00:06:51.808Z,53.06
2023-05-06T00:07:54.061Z,52.91
2023-05-06T00:08:56.342Z,52.66
2023-05-06T00:10:00.084Z,52.70
2023-05-06T00:11:02.371Z,52.94
2023-05-06T00:12:05.687Z,52.50
2023-05-06T00:13:08.477Z,53.08
2023-05-06T00:14:11.231Z,52.85
2023-05-06T00:15:13.558Z,53.15
2023-05-06T00:16:16.023Z,53.15
2023-05-06T00:17:18.753Z,52.93
2023-05-06T00:18:22.638Z,53.33
2023-05-06T00:19:24.954Z,53.31
2023-05-06T00:20:28.894Z,53.44
2023-05-06T00:21:32.356Z,53.38
2023-05-06T00:22:34.630Z,53.30
2023-05-06T00:23:36.971Z,53.43
2023-05-06T00:24:39.352Z,53.31
2023-05-06T00:25:42.516Z,53.72
2023-05-06T00:26:44.800Z,53.50
2023-05-06T00:27:47.122Z,53.59
2023-05-06T00:28:49.779Z,53.65
2023-05-06T00:29:52.496Z,53.95
2023-05-06T00:30:54.938Z,54.10
2023-05-06T00:31:57.525Z,54.14
2023-05-06T00:32:59.784Z,53.96
2023-05-06T00:34:02.107Z,54.12
2023-05-06T00:35:04.794Z,54.46
2023-05-06T00:36:07.410Z,54.54
2023-05-06T00:37:09.717Z,54.44
2023-05-06T00:38:13.868Z,54.63
2023-05-06T00:39:18.294Z,54.53
2023-05-06T00:40:20.641Z,54.34
2023-05-06T00:41:22.900Z,54.69
2023-05-06T00:42:25.522Z,54.86
2023-05-06T00:43:28.394Z,54.72
2023-05-06T00:44:32.036Z,54.62
2023-05-06T00:45:34.582Z,54.57
2023-05-06T00:46:37.535Z,54.84
2023-05-06T00:47:41.416Z,54.60
2023-05-06T00:48:44.815Z,55.29
2023-05-06T00:49:47.933Z,55.74
2023-05-06T00:50:51.291Z,55.34
2023-05-06T00:51:56.720Z,55.59
2023-05-06T00:53:00.203Z,55.49
2023-05-06T00:54:02.580Z,55.10
2023-05-06T00:55:05.248Z,55.71
2023-05-06T00:56:08.085Z,55.79
2023-05-06T00:57:10.523Z,55.64
2023-05-06T00:58:13.961Z,55.57
2023-05-06T00:59:16.398Z,55.52
2023-05-06T01:00:20.268Z,55.39
2023-05-06T01:01:23.088Z,55.54
2023-05-06T01:02:33.199Z,55.41
2023-05-06T01:03:42.259Z,55.84
2023-05-06T01:04:45.522Z,55.56
2023-05-06T01:05:59.852Z,55.23
2023-05-06T01:07:17.177Z,55.38
2023-05-06T01:08:48.708Z,55.24
2023-05-06T01:09:57.706Z,55.25
2023-05-06T01:11:07.737Z,55.16
2023-05-06T01:12:21.486Z,55.08
2023-05-06T01:13:45.852Z,55.55
2023-05-06T01:15:09.168Z,55.05
2023-05-06T01:16:14.803Z,55.36
2023-05-06T01:17:18.895Z,55.55
2023-05-06T01:18:23.234Z,55.53
2023-05-06T01:19:39.364Z,55.74
2023-05-06T01:20:43.911Z,55.67
2023-05-06T01:21:46.659Z,55.77
2023-05-06T01:22:50.132Z,55.92
2023-05-06T01:23:54.230Z,55.80
2023-05-06T01:24:56.529Z,55.75
2023-05-06T01:25:58.804Z,56.15
2023-05-06T01:27:01.886Z,56.21
2023-05-06T01:28:04.834Z,56.04
2023-05-06T01:29:07.152Z,55.91
2023-05-06T01:30:09.889Z,55.98
2023-05-06T01:31:15.198Z,56.17
2023-05-06T01:32:22.377Z,56.23
2023-05-06T01:33:44.844Z,55.82
2023-05-06T01:35:00.110Z,56.13
2023-05-06T01:36:16.069Z,56.23
2023-05-06T01:37:46.688Z,55.94
2023-05-06T01:39:13.927Z,56.57
2023-05-06T01:40:18.745Z,56.31
2023-05-06T01:41:23.133Z,56.54
2023-05-06T01:42:27.469Z,56.73
2023-05-06T01:43:35.104Z,56.69
2023-05-06T01:44:39.641Z,57.16
2023-05-06T01:45:42.911Z,56.97
2023-05-06T01:46:46.133Z,56.98
2023-05-06T01:47:50.409Z,57.16
2023-05-06T01:48:58.259Z,57.06
2023-05-06T01:50:02.112Z,57.14
2023-05-06T01:51:04.859Z,57.31
2023-05-06T01:52:07.523Z,57.19
2023-05-06T01:53:09.779Z,57.81
2023-05-06T01:54:12.055Z,57.91
2023-05-06T01:55:14.698Z,58.10
2023-05-06T01:56:17.667Z,58.05
2023-05-06T01:57:19.956Z,57.96
2023-05-06T01:58:22.321Z,57.92
2023-05-06T01:59:26.283Z,58.16
2023-05-06T02:00:30.493Z,58.28
2023-05-06T02:01:33.907Z,58.51
2023-05-06T02:02:36.243Z,58.48
2023-05-06T02:03:39.121Z,58.63
2023-05-06T02:04:41.669Z,58.42
2023-05-06T02:05:44.085Z,58.52
2023-05-06T02:06:46.635Z,58.93
2023-05-06T02:07:51.534Z,59.42
2023-05-06T02:08:54.282Z,59.38
2023-05-06T02:09:59.379Z,59.33
2023-05-06T02:11:02.008Z,59.53
2023-05-06T02:12:05.226Z,59.47
2023-05-06T02:13:08.305Z,59.55
2023-05-06T02:14:11.654Z,60.03
2023-05-06T02:15:14.086Z,59.95
2023-05-06T02:16:16.576Z,59.81
2023-05-06T02:17:18.846Z,60.00
2023-05-06T02:18:21.210Z,59.65
2023-05-06T02:19:23.476Z,59.96
2023-05-06T02:20:26.224Z,59.80
2023-05-06T02:21:28.566Z,60.38
2023-05-06T02:22:30.924Z,60.50
2023-05-06T02:23:33.213Z,60.22
2023-05-06T02:24:35.508Z,60.54
2023-05-06T02:25:37.944Z,60.29
2023-05-06T02:26:40.246Z,60.31
2023-05-06T02:27:42.497Z,60.81
2023-05-06T02:28:44.848Z,60.93
2023-05-06T02:29:48.364Z,60.93
2023-05-06T02:30:54.733Z,61.04
2023-05-06T02:31:57.471Z,61.00
2023-05-06T02:32:59.970Z,61.16
2023-05-06T02:34:02.994Z,61.35
2023-05-06T02:35:05.686Z,61.47
2023-05-06T02:36:08.166Z,61.45
2023-05-06T02:37:10.467Z,61.42
2023-05-06T02:38:13.181Z,61.34
2023-05-06T02:39:15.579Z,61.40
2023-05-06T02:40:17.945Z,61.79
2023-05-06T02:41:20.198Z,61.69
2023-05-06T02:42:22.469Z,62.09
2023-05-06T02:43:25.131Z,61.85
2023-05-06T02:44:28.549Z,61.69
2023-05-06T02:45:30.876Z,61.96
2023-05-06T02:46:35.236Z,62.14
2023-05-06T02:47:37.519Z,61.96
2023-05-06T02:48:39.779Z,62.13
2023-05-06T02:49:42.027Z,62.11
2023-05-06T02:50:45.039Z,62.19
2023-05-06T02:51:47.363Z,62.39
2023-05-06T02:52:49.655Z,62.53
2023-05-06T02:53:52.235Z,62.29
2023-05-06T02:54:54.601Z,62.24
2023-05-06T02:55:56.885Z,62.26
2023-05-06T02:56:59.209Z,62.44
2023-05-06T02:58:01.537Z,62.59
2023-05-06T02:59:04.393Z,62.71
2023-05-06T03:00:07.350Z,62.65
2023-05-06T03:01:09.748Z,62.33
2023-05-06T03:02:12.584Z,62.30
2023-05-06T03:03:14.989Z,62.31
2023-05-06T03:04:17.686Z,62.40
2023-05-06T03:05:20.215Z,62.42
2023-05-06T03:06:22.579Z,62.60
2023-05-06T03:07:24.944Z,62.59
2023-05-06T03:08:27.238Z,62.56
2023-05-06T03:09:30.885Z,62.47
2023-05-06T03:10:33.172Z,62.66
2023-05-06T03:11:36.345Z,62.84
2023-05-06T03:12:40.672Z,62.54
2023-05-06T03:13:43.010Z,62.56
2023-05-06T03:14:45.733Z,62.77
2023-05-06T03:15:54.327Z,62.63
2023-05-06T03:16:57.263Z,62.49
2023-05-06T03:18:00.326Z,62.75
2023-05-06T03:19:04.058Z,62.47
2023-05-06T03:20:08.971Z,62.85
2023-05-06T03:21:14.448Z,62.49
2023-05-06T03:22:18.188Z,62.74
2023-05-06T03:23:21.786Z,62.70
2023-05-06T03:24:25.691Z,62.80
2023-05-06T03:25:28.123Z,62.54
2023-05-06T03:26:31.428Z,62.59
2023-05-06T03:27:34.154Z,62.57
2023-05-06T03:28:44.113Z,62.91
2023-05-06T03:29:47.343Z,62.80
2023-05-06T03:30:50.706Z,62.82
2023-05-06T03:31:56.442Z,62.96
2023-05-06T03:33:03.196Z,63.03
2023-05-06T03:34:08.102Z,62.78
2023-05-06T03:35:11.877Z,62.84
2023-05-06T03:36:18.147Z,62.84
2023-05-06T03:37:23.017Z,62.79
2023-05-06T03:38:29.501Z,62.71
2023-05-06T03:39:37.084Z,63.02
2023-05-06T03:40:39.773Z,63.06
2023-05-06T03:41:42.427Z,62.98
2023-05-06T03:42:45.316Z,62.89
2023-05-06T03:43:48.189Z,63.07
2023-05-06T03:44:54.982Z,63.22
2023-05-06T03:45:59.266Z,63.31
2023-05-06T03:47:02.195Z,62.82
2023-05-06T03:48:06.620Z,62.86
2023-05-06T03:49:13.064Z,63.11
2023-05-06T03:50:16.390Z,63.07
2023-05-06T03:51:19.770Z,62.93
2023-05-06T03:52:22.137Z,62.88
2023-05-06T03:53:24.543Z,62.95
2023-05-06T03:54:27.561Z,63.35
2023-05-06T03:55:30.345Z,63.52
2023-05-06T03:56:33.044Z,63.39
2023-05-06T03:57:36.392Z,63.37
2023-05-06T03:58:39.987Z,63.19
2023-05-06T03:59:44.773Z,63.08
2023-05-06T04:00:47.322Z,63.40
2023-05-06T04:01:49.801Z,63.25
2023-05-06T04:02:52.593Z,63.42
2023-05-06T04:04:01.491Z,63.07
2023-05-06T04:05:04.257Z,63.27
2023-05-06T04:06:07.240Z,63.51
2023-05-06T04:07:09.530Z,63.21
2023-05-06T04:08:11.809Z,63.57
2023-05-06T04:09:14.412Z,63.26
2023-05-06T04:10:17.009Z,63.34
2023-05-06T04:11:23.577Z,63.53
2023-05-06T04:12:26.044Z,63.43
2023-05-06T04:13:29.384Z,63.44
2023-05-06T04:14:34.040Z,63.27
2023-05-06T04:15:37.828Z,63.10
2023-05-06T04:16:43.833Z,63.19
2023-05-06T04:17:47.274Z,63.14
2023-05-06T04:18:51.821Z,63.25
2023-05-06T04:19:55.112Z,63.39
2023-05-06T04:20:57.435Z,63.60
2023-05-06T04:22:00.985Z,63.37
2023-05-06T04:23:03.388Z,63.25
2023-05-06T04:24:06.221Z,63.20
2023-05-06T04:25:13.401Z,63.24
2023-05-06T04:26:16.371Z,63.56
2023-05-06T04:27:20.074Z,63.67
2023-05-06T04:28:22.419Z,63.31
2023-05-06T04:29:27.305Z,63.65
2023-05-06T04:30:36.153Z,63.87
2023-05-06T04:31:38.684Z,63.69
2023-05-06T04:32:44.153Z,63.47
2023-05-06T04:33:46.674Z,63.31
2023-05-06T04:34:56.152Z,63.21
2023-05-06T04:36:00.553Z,63.34
2023-05-06T04:37:05.826Z,63.33
2023-05-06T04:38:34.187Z,63.09
2023-05-06T04:39:39.470Z,63.34
2023-05-06T04:40:42.739Z,63.13
2023-05-06T04:41:45.104Z,62.98
2023-05-06T04:42:52.636Z,63.12
2023-05-06T04:43:58.810Z,62.95
2023-05-06T04:45:01.153Z,63.10
2023-05-06T04:46:07.340Z,63.15
2023-05-06T04:47:11.411Z,63.26
2023-05-06T04:48:19.303Z,63.43
2023-05-06T04:49:22.089Z,63.31
2023-05-06T04:50:24.629Z,63.26
2023-05-06T04:51:30.023Z,63.31
2023-05-06T04:52:32.562Z,63.42
2023-05-06T04:53:35.099Z,63.68
2023-05-06T04:54:37.909Z,63.61
2023-05-06T04:55:41.114Z,63.55
2023-05-06T04:56:44.070Z,63.30
2023-05-06T04:57:48.718Z,63.18
2023-05-06T04:58:52.884Z,63.21
2023-05-06T04:59:55.172Z,63.20
2023-05-06T05:00:58.245Z,63.21
2023-05-06T05:02:00.689Z,63.29
2023-05-06T05:03:03.110Z,63.22
2023-05-06T05:04:05.712Z,63.45
2023-05-06T05:05:08.564Z,63.27
2023-05-06T05:06:13.588Z,63.63
2023-05-06T05:07:16.097Z,63.58
2023-05-06T05:08:19.834Z,63.51
2023-05-06T05:09:22.139Z,63.48
2023-05-06T05:10:25.018Z,63.65
2023-05-06T05:11:28.169Z,63.37
2023-05-06T05:12:31.660Z,63.70
2023-05-06T05:13:35.689Z,63.67
2023-05-06T05:14:39.185Z,63.63
2023-05-06T05:15:42.827Z,63.82
2023-05-06T05:16:45.841Z,63.72
2023-05-06T05:17:48.518Z,63.69
2023-05-06T05:18:52.160Z,63.63
2023-05-06T05:19:59.137Z,63.65
2023-05-06T05:21:02.693Z,63.79
2023-05-06T05:22:06.214Z,63.73
2023-05-06T05:23:09.038Z,63.82
2023-05-06T05:24:11.731Z,63.85
2023-05-06T05:25:14.550Z,63.70
2023-05-06T05:26:17.264Z,63.35
2023-05-06T05:27:23.913Z,63.77
2023-05-06T05:28:27.044Z,63.56
2023-05-06T05:29:34.206Z,63.99
2023-05-06T05:30:39.161Z,63.56
2023-05-06T05:31:42.401Z,63.57
2023-05-06T05:32:46.488Z,63.70
2023-05-06T05:33:50.356Z,63.76
2023-05-06T05:34:56.997Z,63.67
2023-05-06T05:36:00.337Z,63.33
2023-05-06T05:37:04.036Z,63.31
2023-05-06T05:38:07.065Z,63.45
2023-05-06T05:39:09.720Z,63.31
2023-05-06T05:40:17.865Z,63.11
2023-05-06T05:41:20.494Z,62.89
2023-05-06T05:42:23.213Z,62.98
2023-05-06T05:43:27.714Z,62.90
2023-05-06T05:44:30.732Z,62.83
2023-05-06T05:45:34.559Z,62.67
2023-05-06T05:46:38.267Z,63.03
2023-05-06T05:47:41.502Z,62.87
2023-05-06T05:48:44.489Z,62.96
2023-05-06T05:49:47.033Z,62.64
2023-05-06T05:50:49.914Z,62.57
2023-05-06T05:51:52.708Z,62.61
2023-05-06T05:52:57.172Z,62.32
2023-05-06T05:53:59.806Z,62.45
2023-05-06T05:55:03.148Z,62.67
2023-05-06T05:56:07.443Z,62.56
2023-05-06T05:57:09.897Z,62.83
2023-05-06T05:58:12.752Z,62.74
2023-05-06T05:59:15.934Z,62.39
2023-05-06T06:00:20.500Z,62.59
2023-05-06T06:01:24.243Z,62.30
2023-05-06T06:02:26.775Z,62.29
2023-05-06T06:03:29.290Z,62.67
2023-05-06T06:04:31.718Z,62.73
2023-05-06T06:05:34.148Z,62.76
2023-05-06T06:06:36.606Z,62.45
2023-05-06T06:07:39.828Z,62.61
2023-05-06T06:08:42.889Z,62.75
2023-05-06T06:09:47.311Z,62.69
2023-05-06T06:10:50.813Z,62.71
2023-05-06T06:11:56.598Z,62.70
2023-05-06T06:13:00.231Z,62.48
2023-05-06T06:14:05.648Z,62.38
2023-05-06T06:15:09.195Z,62.48
2023-05-06T06:16:13.676Z,62.62
2023-05-06T06:17:17.381Z,62.57
2023-05-06T06:18:20.795Z,62.36
2023-05-06T06:19:23.325Z,62.22
2023-05-06T06:20:26.765Z,62.46
2023-05-06T06:21:29.214Z,62.52
2023-05-06T06:22:31.548Z,62.20
2023-05-06T06:23:34.693Z,62.16
2023-05-06T06:24:39.296Z,62.32
2023-05-06T06:25:41.743Z,62.25
2023-05-06T06:26:44.422Z,61.91
2023-05-06T06:27:46.978Z,62.15
2023-05-06T06:28:50.256Z,61.68
2023-05-06T06:29:52.682Z,62.13
2023-05-06T06:30:54.959Z,61.74
2023-05-06T06:31:58.431Z,61.75
2023-05-06T06:33:01.627Z,61.83
2023-05-06T06:34:06.757Z,61.66
2023-05-06T06:35:09.911Z,61.47
2023-05-06T06:36:12.729Z,61.41
2023-05-06T06:37:17.871Z,61.71
2023-05-06T06:38:20.226Z,61.65
2023-05-06T06:39:22.656Z,61.64
2023-05-06T06:40:24.989Z,61.33
2023-05-06T06:41:28.295Z,61.27
2023-05-06T06:42:30.608Z,61.38
2023-05-06T06:43:41.942Z,61.23
2023-05-06T06:44:54.462Z,61.28
2023-05-06T06:45:56.859Z,60.76
2023-05-06T06:46:59.147Z,60.81
2023-05-06T06:48:01.485Z,60.79
2023-05-06T06:49:03.805Z,60.96
2023-05-06T06:50:07.231Z,60.87
2023-05-06T06:51:09.495Z,60.77
2023-05-06T06:52:11.779Z,60.80
2023-05-06T06:53:14.109Z,60.62
2023-05-06T06:54:16.387Z,60.69
2023-05-06T06:55:19.189Z,60.40
2023-05-06T06:56:22.137Z,60.58
2023-05-06T06:57:25.558Z,60.17
2023-05-06T06:58:27.860Z,59.97
2023-05-06T06:59:31.226Z,59.92
2023-05-06T07:00:33.538Z,59.95
2023-05-06T07:01:37.026Z,59.70
2023-05-06T07:02:39.524Z,59.58
2023-05-06T07:03:41.844Z,59.48
2023-05-06T07:04:44.210Z,59.49
2023-05-06T07:05:46.794Z,59.25
2023-05-06T07:06:50.848Z,59.24
2023-05-06T07:07:53.376Z,59.25
2023-05-06T07:08:55.702Z,58.85
2023-05-06T07:09:58.833Z,58.94
2023-05-06T07:11:01.348Z,58.77
2023-05-06T07:12:03.998Z,58.66
2023-05-06T07:13:06.320Z,58.59
2023-05-06T07:14:09.082Z,58.27
2023-05-06T07:15:11.783Z,58.18
2023-05-06T07:16:14.316Z,58.08
2023-05-06T07:17:16.796Z,58.21
2023-05-06T07:18:20.550Z,58.14
2023-05-06T07:19:22.896Z,58.12
2023-05-06T07:20:25.307Z,57.86
2023-05-06T07:21:27.587Z,57.99
2023-05-06T07:22:29.896Z,57.79
2023-05-06T07:23:33.556Z,57.54
2023-05-06T07:24:37.275Z,57.58
2023-05-06T07:25:39.841Z,57.69
2023-05-06T07:26:42.196Z,57.64
2023-05-06T07:27:44.592Z,57.65
2023-05-06T07:28:47.212Z,57.46
2023-05-06T07:29:49.872Z,57.78
2023-05-06T07:30:53.294Z,57.37
2023-05-06T07:31:55.885Z,57.52
2023-05-06T07:32:58.229Z,57.54
2023-05-06T07:34:00.936Z,57.45
2023-05-06T07:35:03.721Z,57.84
2023-05-06T07:36:07.381Z,57.63
2023-05-06T07:37:09.663Z,57.82
2023-05-06T07:38:11.944Z,57.93
2023-05-06T07:39:14.332Z,57.78
2023-05-06T07:40:16.561Z,57.65
2023-05-06T07:41:19.200Z,57.99
2023-05-06T07:42:21.475Z,57.72
2023-05-06T07:43:24.462Z,58.07
2023-05-06T07:44:26.904Z,57.74
2023-05-06T07:45:29.305Z,57.79
2023-05-06T07:46:31.761Z,58.04
2023-05-06T07:47:35.217Z,58.14
2023-05-06T07:48:37.926Z,58.02
2023-05-06T07:49:41.450Z,58.27
2023-05-06T07:50:43.956Z,58.25
2023-05-06T07:51:46.273Z,58.03
2023-05-06T07:52:48.593Z,58.08
2023-05-06T07:53:50.868Z,58.18
2023-05-06T07:54:54.016Z,58.15
2023-05-06T07:56:02.278Z,58.36
2023-05-06T07:57:06.253Z,58.21
2023-05-06T07:58:08.569Z,58.25
2023-05-06T07:59:12.009Z,58.19
2023-05-06T08:00:15.365Z,58.09
2023-05-06T08:01:20.583Z,57.99
2023-05-06T08:02:24.404Z,57.68
2023-05-06T08:03:27.007Z,57.64
2023-05-06T08:04:29.485Z,57.95
2023-05-06T08:05:31.779Z,58.03
2023-05-06T08:06:34.253Z,58.14
2023-05-06T08:07:37.115Z,57.63
2023-05-06T08:08:39.406Z,57.94
2023-05-06T08:09:41.643Z,58.02
2023-05-06T08:10:45.090Z,58.22
2023-05-06T08:11:47.492Z,58.14
2023-05-06T08:12:49.890Z,57.83
2023-05-06T08:13:52.149Z,57.98
2023-05-06T08:14:55.342Z,57.75
2023-05-06T08:15:57.769Z,58.05
2023-05-06T08:17:00.205Z,57.65
2023-05-06T08:18:13.709Z,57.87
2023-05-06T08:19:22.015Z,57.51
2023-05-06T08:20:25.375Z,57.45
2023-05-06T08:21:27.943Z,57.60
2023-05-06T08:22:30.225Z,57.43
2023-05-06T08:23:32.699Z,57.32
2023-05-06T08:24:34.992Z,57.05
2023-05-06T08:25:37.211Z,57.30
2023-05-06T08:26:39.778Z,57.30
2023-05-06T08:27:42.110Z,57.24
2023-05-06T08:28:44.861Z,57.45
2023-05-06T08:29:47.159Z,57.41
2023-05-06T08:30:51.539Z,57.48
2023-05-06T08:31:53.956Z,57.44
2023-05-06T08:32:56.302Z,57.63
2023-05-06T08:33:58.556Z,57.29
2023-05-06T08:35:00.973Z,57.33
2023-05-06T08:36:03.321Z,56.79
2023-05-06T08:37:05.639Z,56.88
2023-05-06T08:38:08.168Z,56.67
2023-05-06T08:39:10.395Z,56.37
2023-05-06T08:40:20.057Z,56.28
2023-05-06T08:41:22.780Z,56.28
2023-05-06T08:42:26.609Z,56.57
2023-05-06T08:43:34.147Z,56.60
2023-05-06T08:44:36.588Z,56.53
2023-05-06T08:45:39.118Z,56.38
2023-05-06T08:46:41.430Z,56.75
2023-05-06T08:47:44.039Z,56.71
2023-05-06T08:48:46.514Z,56.56
2023-05-06T08:49:49.221Z,56.38
2023-05-06T08:50:54.856Z,56.50
2023-05-06T08:51:58.297Z,56.54
2023-05-06T08:53:01.857Z,56.32
2023-05-06T08:54:04.902Z,55.99
2023-05-06T08:55:10.098Z,56.01
2023-05-06T08:56:13.855Z,55.85
2023-05-06T08:57:16.908Z,55.70
2023-05-06T08:58:19.597Z,55.51
2023-05-06T08:59:27.292Z,55.39
2023-05-06T09:00:29.605Z,55.58
2023-05-06T09:01:31.968Z,55.47
2023-05-06T09:02:34.413Z,55.54
2023-05-06T09:03:36.848Z,55.44
2023-05-06T09:04:39.921Z,55.21
2023-05-06T09:05:42.215Z,55.21
2023-05-06T09:06:44.519Z,55.34
2023-05-06T09:07:46.790Z,55.59
2023-05-06T09:08:49.122Z,55.56
2023-05-06T09:09:51.769Z,55.41
2023-05-06T09:10:54.067Z,55.54
2023-05-06T09:11:57.910Z,55.57
2023-05-06T09:13:00.283Z,55.45
2023-05-06T09:14:13.844Z,55.42
2023-05-06T09:15:16.600Z,55.23
2023-05-06T09:16:31.215Z,55.32
2023-05-06T09:17:33.721Z,55.47
2023-05-06T09:18:37.517Z,55.39
2023-05-06T09:19:40.486Z,55.42
2023-05-06T09:20:45.366Z,55.62
2023-05-06T09:21:50.143Z,55.77
2023-05-06T09:22:52.554Z,55.57
2023-05-06T09:23:54.943Z,55.43
2023-05-06T09:24:58.958Z,55.41
2023-05-06T09:26:01.950Z,55.58
2023-05-06T09:27:04.690Z,55.42
2023-05-06T09:28:09.447Z,55.54
2023-05-06T09:29:12.204Z,55.65
2023-05-06T09:30:15.270Z,55.53
2023-05-06T09:31:17.590Z,55.71
2023-05-06T09:32:20.202Z,55.46
2023-05-06T09:33:22.520Z,55.66
2023-05-06T09:34:24.968Z,55.63
2023-05-06T09:35:29.285Z,55.84
2023-05-06T09:36:32.030Z,55.96
2023-05-06T09:37:34.468Z,55.59
2023-05-06T09:38:36.713Z,55.62
2023-05-06T09:39:39.064Z,55.85
2023-05-06T09:40:42.213Z,55.77
2023-05-06T09:41:45.492Z,56.05
2023-05-06T09:42:47.763Z,56.04
2023-05-06T09:43:51.268Z,55.98
2023-05-06T09:44:55.327Z,55.98
2023-05-06T09:45:58.122Z,55.69
2023-05-06T09:47:00.626Z,55.70
2023-05-06T09:48:02.951Z,55.38
2023-05-06T09:49:06.308Z,55.03
2023-05-06T09:50:09.542Z,54.99
2023-05-06T09:51:11.976Z,55.10
2023-05-06T09:52:14.351Z,54.89
2023-05-06T09:53:18.683Z,54.80
2023-05-06T09:54:22.537Z,54.76
2023-05-06T09:55:27.520Z,54.89
2023-05-06T09:56:31.350Z,54.86
2023-05-06T09:57:34.338Z,54.83
2023-05-06T09:58:37.372Z,54.77
2023-05-06T09:59:40.433Z,54.92
2023-05-06T10:00:44.259Z,54.97
2023-05-06T10:01:47.213Z,55.03
2023-05-06T10:02:49.812Z,54.95
2023-05-06T10:03:53.785Z,55.03
2023-05-06T10:04:58.782Z,55.13
2023-05-06T10:06:02.419Z,54.96
2023-05-06T10:07:05.526Z,54.98
2023-05-06T10:08:09.586Z,54.84
2023-05-06T10:09:12.601Z,54.93
2023-05-06T10:10:15.595Z,54.92
2023-05-06T10:11:19.248Z,54.99
2023-05-06T10:12:21.927Z,55.26
2023-05-06T10:13:25.256Z,54.96
2023-05-06T10:14:28.096Z,54.99
2023-05-06T10:15:32.886Z,55.41
2023-05-06T10:16:36.719Z,55.03
2023-05-06T10:17:41.891Z,55.15
2023-05-06T10:18:46.728Z,55.44
2023-05-06T10:19:52.498Z,55.42
2023-05-06T10:20:55.752Z,55.10
2023-05-06T10:22:06.603Z,55.19
2023-05-06T10:23:19.575Z,55.26
2023-05-06T10:24:27.197Z,55.20
2023-05-06T10:25:36.694Z,55.44
2023-05-06T10:26:41.082Z,55.37
2023-05-06T10:27:46.088Z,55.36
2023-05-06T10:28:53.241Z,55.14
2023-05-06T10:29:59.579Z,55.02
2023-05-06T10:31:05.253Z,55.04
2023-05-06T10:32:09.946Z,55.33
2023-05-06T10:33:15.358Z,55.17
2023-05-06T10:34:20.765Z,55.09
2023-05-06T10:35:35.776Z,55.05
2023-05-06T10:36:39.320Z,55.21
2023-05-06T10:37:43.315Z,55.26
2023-05-06T10:38:50.628Z,55.37
2023-05-06T10:39:55.257Z,55.30
2023-05-06T10:40:58.431Z,55.50
2023-05-06T10:42:02.014Z,55.55
2023-05-06T10:43:41.595Z,55.61
2023-05-06T10:45:00.363Z,55.15
2023-05-06T10:46:09.402Z,55.25
2023-05-06T10:47:11.717Z,55.43
2023-05-06T10:48:14.332Z,55.49
2023-05-06T10:49:17.681Z,55.51
2023-05-06T10:50:26.413Z,55.17
2023-05-06T10:51:28.931Z,54.89
2023-05-06T10:52:47.521Z,55.14
2023-05-06T10:54:22.054Z,54.80
2023-05-06T10:55:30.362Z,54.75
2023-05-06T10:56:39.625Z,54.62
2023-05-06T10:57:42.486Z,54.51
2023-05-06T10:58:48.327Z,54.55
2023-05-06T10:59:50.646Z,54.52
2023-05-06T11:00:57.289Z,54.38
2023-05-06T11:02:02.629Z,54.28
2023-05-06T11:03:13.629Z,54.28
2023-05-06T11:04:18.796Z,54.54
2023-05-06T11:05:22.554Z,54.58
2023-05-06T11:06:37.146Z,54.42
2023-05-06T11:07:39.423Z,54.75
2023-05-06T11:08:41.720Z,54.46
2023-05-06T11:10:08.376Z,54.20
2023-05-06T11:12:02.248Z,54.28
2023-05-06T11:13:29.023Z,54.20
2023-05-06T11:14:37.924Z,54.48
2023-05-06T11:15:40.885Z,54.52
2023-05-06T11:16:53.682Z,54.68
2023-05-06T11:17:57.081Z,54.87
2023-05-06T11:18:59.707Z,54.88
2023-05-06T11:20:22.172Z,54.73
2023-05-06T11:21:30.625Z,54.74
2023-05-06T11:22:40.902Z,54.77
2023-05-06T11:23:47.176Z,54.91
2023-05-06T11:24:49.563Z,54.61
2023-05-06T11:25:52.066Z,54.74
2023-05-06T11:26:58.726Z,54.91
2023-05-06T11:28:00.934Z,54.71
2023-05-06T11:29:05.101Z,54.62
2023-05-06T11:30:13.691Z,54.54
2023-05-06T11:31:16.655Z,54.38
2023-05-06T11:32:25.333Z,54.13
2023-05-06T11:33:35.804Z,54.18
2023-05-06T11:34:39.163Z,53.73
2023-05-06T11:35:41.488Z,53.75
2023-05-06T11:36:49.562Z,53.87
2023-05-06T11:37:52.434Z,53.51
2023-05-06T11:38:56.428Z,53.80
2023-05-06T11:39:58.755Z,53.68
2023-05-06T11:41:01.205Z,53.91
2023-05-06T11:42:06.857Z,54.00
2023-05-06T11:43:16.350Z,53.88
2023-05-06T11:44:30.070Z,53.76
2023-05-06T11:45:48.795Z,53.52
2023-05-06T11:46:51.675Z,53.66
2023-05-06T11:47:54.835Z,53.39
2023-05-06T11:48:57.132Z,53.38
2023-05-06T11:50:00.172Z,53.31
2023-05-06T11:51:03.109Z,53.21
2023-05-06T11:52:05.767Z,53.24
2023-05-06T11:53:08.852Z,53.14
2023-05-06T11:54:11.321Z,53.00
2023-05-06T11:55:13.626Z,52.97
2023-05-06T11:56:16.318Z,53.60
2023-05-06T11:57:20.215Z,53.35
2023-05-06T11:58:27.220Z,53.48
2023-05-06T11:59:37.624Z,53.63
2023-05-06T12:00:52.041Z,53.55
2023-05-06T12:01:54.374Z,53.23
2023-05-06T12:02:57.178Z,53.39
2023-05-06T12:03:59.696Z,53.33
2023-05-06T12:05:03.079Z,53.40
2023-05-06T12:06:05.876Z,53.05
2023-05-06T12:07:11.193Z,53.24
2023-05-06T12:08:24.011Z,53.09
2023-05-06T12:09:29.842Z,52.91
2023-05-06T12:10:32.149Z,53.29
2023-05-06T12:11:35.625Z,53.15
2023-05-06T12:12:37.984Z,53.10
2023-05-06T12:13:40.935Z,53.26
2023-05-06T12:14:47.098Z,52.79
2023-05-06T12:15:52.796Z,52.85
2023-05-06T12:16:56.206Z,52.94
2023-05-06T12:17:58.701Z,52.74
2023-05-06T12:19:02.099Z,52.36
2023-05-06T12:20:05.001Z,52.57
2023-05-06T12:21:07.635Z,52.32
2023-05-06T12:22:18.155Z,52.63
2023-05-06T12:23:22.135Z,52.44
2023-05-06T12:24:29.235Z,52.51
2023-05-06T12:25:31.473Z,52.31
2023-05-06T12:26:47.987Z,52.57
2023-05-06T12:27:50.235Z,52.23
2023-05-06T12:29:10.924Z,52.27
2023-05-06T12:30:13.693Z,51.99
2023-05-06T12:31:23.574Z,52.14
2023-05-06T12:32:25.992Z,52.16
2023-05-06T12:33:28.362Z,52.02
2023-05-06T12:34:38.509Z,51.88
2023-05-06T12:35:41.632Z,51.93
2023-05-06T12:36:47.424Z,52.27
2023-05-06T12:37:49.825Z,51.97
2023-05-06T12:38:58.012Z,51.86
2023-05-06T12:40:00.568Z,52.03
2023-05-06T12:41:04.596Z,51.94
2023-05-06T12:42:06.987Z,51.46
2023-05-06T12:43:10.712Z,51.59
2023-05-06T12:44:38.842Z,51.42
2023-05-06T12:45:41.333Z,50.98
2023-05-06T12:46:51.816Z,51.04
2023-05-06T12:47:55.755Z,50.89
2023-05-06T12:48:59.969Z,51.10
2023-05-06T12:50:02.506Z,51.19
2023-05-06T12:51:21.649Z,51.08
2023-05-06T12:52:25.720Z,50.86
2023-05-06T12:53:33.503Z,50.59
2023-05-06T12:54:36.479Z,50.64
2023-05-06T12:55:40.166Z,50.73
2023-05-06T12:56:42.528Z,50.65
2023-05-06T12:57:44.848Z,50.46
2023-05-06T12:59:02.040Z,50.49
2023-05-06T13:00:06.362Z,50.48
2023-05-06T13:01:08.749Z,50.60
2023-05-06T13:02:13.437Z,50.34
2023-05-06T13:03:15.840Z,50.42
2023-05-06T13:04:18.447Z,50.16
2023-05-06T13:05:20.829Z,50.17
2023-05-06T13:06:23.176Z,50.08
2023-05-06T13:07:25.551Z,50.22
2023-05-06T13:08:28.919Z,49.70
2023-05-06T13:09:31.289Z,49.60
2023-05-06T13:10:35.088Z,49.69
2023-05-06T13:11:38.434Z,49.36
2023-05-06T13:12:40.893Z,49.34
2023-05-06T13:13:43.788Z,48.94
2023-05-06T13:14:46.269Z,49.07
2023-05-06T13:15:48.551Z,48.95
2023-05-06T13:16:50.952Z,49.12
2023-05-06T13:17:53.343Z,48.70
2023-05-06T13:18:55.738Z,48.81
2023-05-06T13:19:58.054Z,48.34
2023-05-06T13:21:00.846Z,48.47
2023-05-06T13:22:03.235Z,48.49
2023-05-06T13:23:05.589Z,48.40
2023-05-06T13:24:08.884Z,48.87
2023-05-06T13:25:14.114Z,48.99
2023-05-06T13:26:17.466Z,48.91
2023-05-06T13:27:19.722Z,49.00
2023-05-06T13:28:21.947Z,49.26
2023-05-06T13:29:24.604Z,49.36
2023-05-06T13:30:27.076Z,49.22
2023-05-06T13:31:29.447Z,49.28
2023-05-06T13:32:31.870Z,49.20
2023-05-06T13:33:35.198Z,49.01
2023-05-06T13:34:37.548Z,49.11
2023-05-06T13:35:39.841Z,49.42
2023-05-06T13:36:43.916Z,49.32
2023-05-06T13:37:46.432Z,49.24
2023-05-06T13:38:48.784Z,49.41
2023-05-06T13:39:51.368Z,49.52
2023-05-06T13:40:54.764Z,49.35
2023-05-06T13:41:57.037Z,49.48
2023-05-06T13:42:59.430Z,49.13
2023-05-06T13:44:01.818Z,49.21
2023-05-06T13:45:05.006Z,48.90
2023-05-06T13:46:09.018Z,48.93
2023-05-06T13:47:11.462Z,49.13
2023-05-06T13:48:14.467Z,49.04
2023-05-06T13:49:18.199Z,48.88